Time;durP1;ratioP1;P1;durP2;ratioP2;P2;SDS_P1;SDS_P2;PMS_P1;PMS_P2;Temp;Humidity;BMP_temperature;BMP_pressure;BME280_temperature;BME280_humidity;BME280_pressure;Samples;Min_cycle;Max_cycle;Signal;HPM_P1;HPM_P2
2021/07/01 00:01:00;;;;;;;763.17;696.27;;;;;;;-144.99;100.00;52333.94;5080222;28;20239;-61
2021/07/01 00:03:27;;;;;;;716.30;647.50;;;;;;;-144.99;100.00;52331.91;5086095;28;20610;-59
2021/07/01 00:05:54;;;;;;;741.27;671.73;;;;;;;-144.99;100.00;52313.56;5082550;28;20214;-59
2021/07/01 00:08:21;;;;;;;685.07;616.57;;;;;;;-144.99;100.00;52333.94;5072958;28;20216;-59
2021/07/01 00:10:49;;;;;;;781.33;716.43;;;;;;;-144.99;100.00;52315.59;5085489;28;20210;-59
2021/07/01 00:13:15;;;;;;;787.03;720.60;;;;;;;-144.99;100.00;52291.16;5072402;28;20214;-59
2021/07/01 00:15:43;;;;;;;682.57;613.90;;;;;;;-144.99;100.00;52319.69;5072700;28;20215;-59
2021/07/01 00:18:09;;;;;;;667.23;599.50;;;;;;;-144.99;100.00;52309.50;5081107;28;20215;-59
2021/07/01 00:20:37;;;;;;;753.07;682.87;;;;;;;-144.99;100.00;52325.81;5077048;28;20694;-59
2021/07/01 00:23:05;;;;;;;699.63;631.20;;;;;;;-144.99;100.00;52350.25;5086407;28;20700;-59
2021/07/01 00:25:32;;;;;;;723.53;654.77;;;;;;;-144.99;100.00;52289.13;5076835;28;20525;-59
2021/07/01 00:28:00;;;;;;;760.00;689.77;;;;;;;-144.99;100.00;52342.09;5072322;28;20305;-59
2021/07/01 00:30:27;;;;;;;771.27;700.83;;;;;;;-144.99;100.00;52315.59;5082103;28;20230;-59
2021/07/01 00:32:54;;;;;;;731.90;662.13;;;;;;;-144.99;100.00;52325.81;5072098;28;20467;-59
2021/07/01 00:35:20;;;;;;;705.97;636.90;;;;;;;-144.99;100.00;52301.34;5072003;28;20247;-59
2021/07/01 00:37:47;;;;;;;683.87;615.23;;;;;;;-144.99;100.00;52289.13;5072534;28;20219;-60
2021/07/01 00:40:14;;;;;;;673.60;605.63;;;;;;;-144.99;100.00;52338.03;5084906;28;20235;-59
2021/07/01 00:42:41;;;;;;;677.10;609.37;;;;;;;-144.99;100.00;52329.88;5077637;28;20228;-59
2021/07/01 00:45:10;;;;;;;728.63;659.13;;;;;;;-144.99;100.00;52323.75;5072335;28;20211;-59
2021/07/01 00:47:38;;;;;;;651.37;584.33;;;;;;;-144.99;100.00;52321.72;5071990;28;20231;-58
2021/07/01 00:50:08;;;;;;;687.97;619.83;;;;;;;-144.99;100.00;52317.66;5070960;28;20766;-61
2021/07/01 00:52:35;;;;;;;683.57;615.47;;;;;;;-144.99;100.00;52348.22;5079377;28;20204;-58
2021/07/01 00:55:03;;;;;;;672.93;604.90;;;;;;;-144.99;100.00;52340.06;5087087;28;20667;-59
2021/07/01 00:57:31;;;;;;;661.00;593.63;;;;;;;-144.99;100.00;52362.50;5073102;28;20598;-59
2021/07/01 00:59:57;;;;;;;679.23;611.37;;;;;;;-144.99;100.00;52325.81;5075079;28;20266;-60
2021/07/01 01:02:25;;;;;;;691.77;623.73;;;;;;;-144.99;100.00;52338.03;5071166;28;20230;-58
2021/07/01 01:04:52;;;;;;;687.43;619.07;;;;;;;-144.99;100.00;52297.25;5072066;28;20220;-60
2021/07/01 01:07:19;;;;;;;671.37;603.77;;;;;;;-144.99;100.00;52327.84;5080450;28;20220;-60
2021/07/01 01:09:46;;;;;;;678.27;610.50;;;;;;;-144.99;100.00;52338.03;5070595;28;20247;-60
2021/07/01 01:12:12;;;;;;;663.03;595.17;;;;;;;-144.99;100.00;52293.19;5082724;28;20201;-60
2021/07/01 01:14:39;;;;;;;664.90;597.80;;;;;;;-144.99;100.00;52289.13;5073656;28;20204;-60
2021/07/01 01:17:06;;;;;;;683.67;615.63;;;;;;;-144.99;100.00;52362.50;5078569;28;20213;-59
2021/07/01 01:19:34;;;;;;;683.47;615.43;;;;;;;-144.99;100.00;52346.19;5072257;28;20249;-60
2021/07/01 01:22:02;;;;;;;715.90;647.20;;;;;;;-144.99;100.00;52338.03;5089268;28;20230;-59
2021/07/01 01:24:33;;;;;;;645.13;577.90;;;;;;;-144.99;100.00;52315.59;5084642;28;20211;-59
2021/07/01 01:26:59;;;;;;;670.07;602.07;;;;;;;-144.99;100.00;52325.81;5071231;28;20229;-59
2021/07/01 01:29:26;;;;;;;688.67;620.30;;;;;;;-144.99;100.00;52333.94;5075199;28;20227;-59
2021/07/01 01:31:52;;;;;;;710.07;641.37;;;;;;;-144.99;100.00;52333.94;5077256;28;20234;-59
2021/07/01 01:34:19;;;;;;;647.23;580.27;;;;;;;-144.99;100.00;52319.69;5070546;28;20209;-60
2021/07/01 01:36:45;;;;;;;665.13;597.87;;;;;;;-144.99;100.00;52362.50;5070760;28;20216;-60
2021/07/01 01:39:13;;;;;;;675.83;608.07;;;;;;;-144.99;100.00;52305.41;5075255;28;20271;-60
2021/07/01 01:41:40;;;;;;;670.67;603.00;;;;;;;-144.99;100.00;52350.25;5074527;28;20239;-60
2021/07/01 01:44:07;;;;;;;660.77;593.50;;;;;;;-144.99;100.00;52325.81;5072578;28;20775;-59
2021/07/01 01:46:36;;;;;;;684.00;616.10;;;;;;;-144.99;100.00;52333.94;5070723;28;20210;-58
2021/07/01 01:49:03;;;;;;;660.83;593.43;;;;;;;-144.99;100.00;52321.72;5070199;28;20228;-58
2021/07/01 01:51:30;;;;;;;635.70;568.93;;;;;;;-144.99;100.00;52333.94;5070079;28;20209;-62
2021/07/01 01:53:56;;;;;;;662.93;595.03;;;;;;;-144.99;100.00;52329.88;5084278;28;20210;-58
2021/07/01 01:56:36;;;;;;;662.63;595.13;;;;;;;-144.99;100.00;52321.72;5085417;28;20200;-58
2021/07/01 01:59:03;;;;;;;682.50;614.60;;;;;;;-144.99;100.00;52338.03;5074598;28;20239;-58
2021/07/01 02:01:29;;;;;;;643.87;576.67;;;;;;;-144.99;100.00;52283.00;5069896;28;20245;-59
2021/07/01 02:03:56;;;;;;;669.80;602.27;;;;;;;-144.99;100.00;52317.66;5070096;28;20211;-58
2021/07/01 02:06:23;;;;;;;685.93;617.23;;;;;;;-144.99;100.00;52366.56;5080078;28;20548;-59
2021/07/01 02:08:49;;;;;;;715.27;646.40;;;;;;;-144.99;100.00;52354.34;5070077;28;20229;-59
2021/07/01 02:11:16;;;;;;;689.33;621.33;;;;;;;-144.99;100.00;52329.88;5070122;28;20631;-59
2021/07/01 02:13:44;;;;;;;709.57;640.67;;;;;;;-144.99;100.00;52338.03;5069808;28;20339;-59
2021/07/01 02:16:11;;;;;;;726.73;657.40;;;;;;;-144.99;100.00;52305.41;5069445;28;20219;-60
2021/07/01 02:18:38;;;;;;;684.90;616.57;;;;;;;-144.99;100.00;52317.66;5078218;28;20239;-60
2021/07/01 02:21:05;;;;;;;680.90;612.67;;;;;;;-144.99;100.00;52317.66;5075604;28;20206;-60
2021/07/01 02:23:31;;;;;;;710.30;641.63;;;;;;;-144.99;100.00;52370.63;5087484;28;20240;-59
2021/07/01 02:25:58;;;;;;;708.27;639.33;;;;;;;-144.99;100.00;52362.50;5070679;28;20212;-60
2021/07/01 02:28:25;;;;;;;700.70;631.90;;;;;;;-144.99;100.00;52317.66;5069329;28;20214;-60
2021/07/01 02:30:52;;;;;;;683.27;615.23;;;;;;;-144.99;100.00;52372.69;5078863;28;20216;-59
2021/07/01 02:33:19;;;;;;;662.27;595.00;;;;;;;-144.99;100.00;52313.56;5069274;28;20215;-59
2021/07/01 02:35:47;;;;;;;678.33;609.90;;;;;;;-144.99;100.00;52305.41;5068980;28;20212;-60
2021/07/01 02:38:13;;;;;;;676.50;608.73;;;;;;;-144.99;100.00;52350.25;5076596;28;20210;-60
2021/07/01 02:40:40;;;;;;;698.17;630.10;;;;;;;-144.99;100.00;52309.50;5084726;28;20209;-60
2021/07/01 02:43:07;;;;;;;672.33;605.03;;;;;;;-144.99;100.00;52307.47;5075257;28;20250;-60
2021/07/01 02:45:33;;;;;;;683.10;615.30;;;;;;;-144.99;100.00;52317.66;5088503;28;20211;-60
2021/07/01 02:48:01;;;;;;;661.83;594.67;;;;;;;-144.99;100.00;52321.72;5079395;28;20220;-60
2021/07/01 02:50:28;;;;;;;716.43;647.50;;;;;;;-144.99;100.00;52362.50;5068989;28;20577;-59
2021/07/01 02:52:54;;;;;;;708.50;639.97;;;;;;;-144.99;100.00;52354.34;5080082;28;20617;-60
2021/07/01 02:55:22;;;;;;;660.53;593.27;;;;;;;-144.99;100.00;52317.66;5083842;28;20207;-59
2021/07/01 02:57:48;;;;;;;681.60;613.07;;;;;;;-144.99;100.00;52356.38;5073301;28;20236;-61
2021/07/01 03:00:16;;;;;;;699.83;631.47;;;;;;;-144.99;100.00;52333.94;5070370;28;20258;-61
2021/07/01 03:02:43;;;;;;;654.60;587.13;;;;;;;-144.99;100.00;52325.81;5068760;28;20652;-61
2021/07/01 03:05:11;;;;;;;643.83;577.13;;;;;;;-144.99;100.00;52346.19;5071793;28;20680;-61
2021/07/01 03:07:38;;;;;;;656.73;589.70;;;;;;;-144.99;100.00;52321.72;5075743;28;20674;-60
2021/07/01 03:10:05;;;;;;;619.33;552.97;;;;;;;-144.99;100.00;52358.41;5069062;28;20239;-60
2021/07/01 03:12:32;;;;;;;627.20;561.20;;;;;;;-144.99;100.00;52366.56;5069903;28;20216;-60
2021/07/01 03:14:59;;;;;;;601.83;536.77;;;;;;;-144.99;100.00;52354.34;5070485;28;20208;-59
2021/07/01 03:17:25;;;;;;;608.33;543.00;;;;;;;-144.99;100.00;52358.41;5078996;28;20207;-60
2021/07/01 03:19:52;;;;;;;598.83;534.27;;;;;;;-144.99;100.00;52321.72;5070190;28;20233;-60
2021/07/01 03:22:19;;;;;;;588.87;524.60;;;;;;;-144.99;100.00;52333.94;5081955;28;20227;-59
2021/07/01 03:24:46;;;;;;;590.77;526.30;;;;;;;-144.99;100.00;52358.41;5081721;28;20222;-61
2021/07/01 03:27:13;;;;;;;610.03;544.87;;;;;;;-144.99;100.00;52325.81;5069277;28;20211;-61
2021/07/01 03:29:39;;;;;;;617.83;552.63;;;;;;;-144.99;100.00;52305.41;5075035;28;20227;-61
2021/07/01 03:32:06;;;;;;;575.90;502.27;;;;;;;-144.99;100.00;52317.66;5073774;28;20232;-61
2021/07/01 03:34:33;;;;;;;599.63;535.30;;;;;;;-144.99;100.00;52342.09;5069025;28;20571;-60
2021/07/01 03:37:00;;;;;;;594.23;529.60;;;;;;;-144.99;100.00;52325.81;5068806;28;20259;-61
2021/07/01 03:39:28;;;;;;;588.93;524.67;;;;;;;-144.99;100.00;52325.81;5075220;28;20260;-61
2021/07/01 03:41:54;;;;;;;593.70;529.27;;;;;;;-144.99;100.00;52299.31;5079992;28;20239;-59
2021/07/01 03:44:21;;;;;;;580.27;515.77;;;;;;;-144.99;100.00;52338.03;5069245;28;20231;-60
2021/07/01 03:46:48;;;;;;;601.63;537.00;;;;;;;-144.99;100.00;52338.03;5068499;28;20218;-61
2021/07/01 03:49:14;;;;;;;596.63;532.10;;;;;;;-144.99;100.00;52354.34;5069645;28;20238;-61
2021/07/01 03:51:41;;;;;;;587.20;523.10;;;;;;;-144.99;100.00;52325.81;5069351;28;20230;-60
2021/07/01 03:54:08;;;;;;;601.23;536.70;;;;;;;-144.99;100.00;52338.03;5088422;28;20218;-60
2021/07/01 03:56:41;;;;;;;588.53;524.37;;;;;;;-144.99;100.00;52366.56;5074155;28;20201;-58
2021/07/01 03:59:09;;;;;;;597.93;533.63;;;;;;;-144.99;100.00;52333.94;5074119;28;20232;-59
2021/07/01 04:01:36;;;;;;;594.80;530.27;;;;;;;-144.99;100.00;52362.50;5068112;28;20218;-59
2021/07/01 04:04:03;;;;;;;580.50;516.53;;;;;;;-144.99;100.00;52293.19;5068188;28;20244;-58
2021/07/01 04:06:30;;;;;;;598.80;534.57;;;;;;;-144.99;100.00;52338.03;5078702;28;20209;-59
2021/07/01 04:08:56;;;;;;;606.83;542.17;;;;;;;-144.99;100.00;52354.34;5068591;28;20243;-59
2021/07/01 04:11:23;;;;;;;598.50;534.33;;;;;;;-144.99;100.00;52362.50;5068355;28;20462;-61
2021/07/01 04:13:51;;;;;;;623.23;557.93;;;;;;;-144.99;100.00;52301.34;5068418;28;20220;-61
2021/07/01 04:16:18;;;;;;;619.77;554.67;;;;;;;-144.99;100.00;52342.09;5069036;28;20215;-60
2021/07/01 04:18:44;;;;;;;606.27;541.60;;;;;;;-144.99;100.00;52325.81;5077172;28;20721;-58
2021/07/01 04:21:11;;;;;;;595.10;530.73;;;;;;;-144.99;100.00;52366.56;5075253;28;20207;-59
2021/07/01 04:23:37;;;;;;;602.17;537.80;;;;;;;-144.99;100.00;52305.41;5088060;28;20231;-59
2021/07/01 04:26:04;;;;;;;609.70;545.17;;;;;;;-144.99;100.00;52338.03;5069855;28;20362;-59
2021/07/01 04:28:31;;;;;;;604.33;540.17;;;;;;;-144.99;100.00;52329.88;5070779;28;20661;-59
2021/07/01 04:30:59;;;;;;;601.50;537.17;;;;;;;-144.99;100.00;52329.88;5082641;28;20486;-59
2021/07/01 04:33:26;;;;;;;576.47;513.10;;;;;;;-144.99;100.00;52346.19;5072087;28;20205;-59
2021/07/01 04:35:53;;;;;;;596.47;532.63;;;;;;;-144.99;100.00;52333.94;5072444;28;20631;-60
2021/07/01 04:38:20;;;;;;;595.27;531.13;;;;;;;-144.99;100.00;52321.72;5072583;28;20631;-60
2021/07/01 04:40:47;;;;;;;627.60;563.00;;;;;;;-144.99;100.00;52366.56;5085473;28;20204;-60
2021/07/01 04:43:13;;;;;;;593.47;529.57;;;;;;;-144.99;100.00;52338.03;5077657;28;20223;-60
2021/07/01 04:45:40;;;;;;;588.13;524.20;;;;;;;-144.99;100.00;52317.66;5072897;28;20219;-60
2021/07/01 04:48:08;;;;;;;605.67;541.60;;;;;;;-144.99;100.00;52317.66;5072184;28;20700;-62
2021/07/01 04:50:36;;;;;;;588.07;524.13;;;;;;;-144.99;100.00;52352.28;5071297;28;20235;-59
2021/07/01 04:53:03;;;;;;;592.00;528.03;;;;;;;-144.99;100.00;52311.53;5077029;28;20201;-62
2021/07/01 04:55:31;;;;;;;607.37;542.80;;;;;;;-144.99;100.00;52368.59;5087150;28;20204;-60
2021/07/01 04:57:58;;;;;;;606.37;542.23;;;;;;;-144.99;100.00;52319.69;5083682;28;20214;-60
2021/07/01 05:00:24;;;;;;;605.23;540.90;;;;;;;-144.99;100.00;52313.56;5071846;28;20244;-59
2021/07/01 05:02:51;;;;;;;600.27;536.17;;;;;;;-144.99;100.00;52346.19;5072306;28;20240;-66
2021/07/01 05:05:19;;;;;;;580.67;517.03;;;;;;;-144.99;100.00;52313.56;5075536;28;20200;-68
2021/07/01 05:07:46;;;;;;;604.43;540.67;;;;;;;-144.99;100.00;52350.25;5076433;28;20213;-67
2021/07/01 05:10:14;;;;;;;603.77;539.73;;;;;;;-144.99;100.00;52346.19;5070974;28;20228;-67
2021/07/01 05:12:41;;;;;;;595.07;531.43;;;;;;;-144.99;100.00;52338.03;5071063;28;20278;-67
2021/07/01 05:15:09;;;;;;;592.33;529.43;;;;;;;-144.99;100.00;52309.50;4020496;28;10000922;-67
2021/07/01 05:17:36;;;;;;;612.70;548.70;;;;;;;-144.99;100.00;52327.84;5076540;28;20223;-67
2021/07/01 05:20:03;;;;;;;611.80;547.73;;;;;;;-144.99;100.00;52313.56;5070377;28;20236;-67
2021/07/01 05:22:31;;;;;;;606.57;542.70;;;;;;;-144.99;100.00;52338.03;5079978;28;20235;-67
2021/07/01 05:24:57;;;;;;;609.47;545.73;;;;;;;-144.99;100.00;52289.13;5077476;28;20626;-66
2021/07/01 05:27:24;;;;;;;605.93;542.27;;;;;;;-144.99;100.00;52333.94;5068011;28;20714;-66
2021/07/01 05:29:51;;;;;;;601.10;537.63;;;;;;;-144.99;100.00;52309.50;5075716;28;20228;-66
2021/07/01 05:32:18;;;;;;;623.30;559.13;;;;;;;-144.99;100.00;52321.72;5069748;28;20733;-66
2021/07/01 05:34:44;;;;;;;626.23;562.43;;;;;;;-144.99;100.00;52309.50;5066980;28;20216;-67
2021/07/01 05:37:11;;;;;;;623.97;559.63;;;;;;;-144.99;100.00;52331.91;5067402;28;20476;-67
2021/07/01 05:39:39;;;;;;;638.70;574.30;;;;;;;-144.99;100.00;52333.94;5074195;28;20727;-67
2021/07/01 05:42:06;;;;;;;629.30;565.27;;;;;;;-144.99;100.00;52317.66;5076453;28;20694;-65
2021/07/01 05:44:33;;;;;;;627.10;563.07;;;;;;;-144.99;100.00;52325.81;5067430;28;20237;-65
2021/07/01 05:46:59;;;;;;;619.23;555.27;;;;;;;-144.99;100.00;52317.66;5066868;28;20212;-67
2021/07/01 05:49:26;;;;;;;632.90;568.80;;;;;;;-144.99;100.00;52321.72;5067384;28;20549;-67
2021/07/01 05:51:56;;;;;;;628.03;564.03;;;;;;;-144.99;100.00;52325.81;5069906;28;20210;-67
2021/07/01 05:54:27;;;;;;;619.73;556.13;;;;;;;-144.99;100.00;52321.72;5079351;28;20223;-67
2021/07/01 05:56:55;;;;;;;623.93;560.07;;;;;;;-144.99;100.00;52313.56;5078656;28;20215;-66
2021/07/01 05:59:22;;;;;;;615.83;552.17;;;;;;;-144.99;100.00;52366.56;5071655;28;20251;-66
2021/07/01 06:01:49;;;;;;;612.50;549.10;;;;;;;-144.99;100.00;52350.25;5066674;28;20222;-66
2021/07/01 06:04:17;;;;;;;614.43;551.00;;;;;;;-144.99;100.00;52289.13;5066564;28;20868;-69
2021/07/01 06:06:49;;;;;;;642.97;578.90;;;;;;;-144.99;100.00;52348.22;5077239;28;20214;-66
2021/07/01 06:09:16;;;;;;;636.87;572.97;;;;;;;-144.99;100.00;52325.81;5066803;28;20658;-66
2021/07/01 06:11:43;;;;;;;640.17;575.97;;;;;;;-144.99;100.00;52289.13;5079828;28;20623;-65
2021/07/01 06:14:12;;;;;;;634.00;570.30;;;;;;;-144.99;100.00;52293.19;5066765;28;20204;-66
2021/07/01 06:16:40;;;;;;;640.80;576.77;;;;;;;-144.99;100.00;52285.03;5081146;28;20213;-65
2021/07/01 06:19:06;;;;;;;630.00;566.40;;;;;;;-144.99;100.00;52309.50;5071715;28;20693;-66
2021/07/01 06:21:34;;;;;;;640.83;576.70;;;;;;;-144.99;100.00;52309.50;5081151;28;20216;-67
2021/07/01 06:24:00;;;;;;;633.27;569.77;;;;;;;-144.99;100.00;52285.03;5084260;28;20228;-67
2021/07/01 06:26:29;;;;;;;635.50;571.53;;;;;;;-144.99;100.00;52293.19;5066959;28;20212;-67
2021/07/01 06:28:56;;;;;;;645.00;581.23;;;;;;;-144.99;100.00;52317.66;5066441;28;20268;-66
2021/07/01 06:31:24;;;;;;;632.67;569.30;;;;;;;-144.99;100.00;52297.25;5066411;28;20308;-68
2021/07/01 06:33:51;;;;;;;629.77;566.50;;;;;;;-144.99;100.00;52276.88;5066810;28;20307;-66
2021/07/01 06:36:19;;;;;;;625.67;562.77;;;;;;;-144.99;100.00;52289.13;5066304;28;20216;-66
2021/07/01 06:38:50;;;;;;;628.90;565.63;;;;;;;-144.99;100.00;52313.56;5067690;28;20661;-66
2021/07/01 06:41:18;;;;;;;631.60;568.40;;;;;;;-144.99;100.00;52331.91;5078171;28;20870;-68
2021/07/01 06:43:48;;;;;;;619.13;556.40;;;;;;;-144.99;100.00;52268.72;5071660;28;21053;-66
2021/07/01 06:46:15;;;;;;;619.27;556.47;;;;;;;-144.99;100.00;52285.03;5065915;28;21002;-66
2021/07/01 06:48:44;;;;;;;617.13;554.10;;;;;;;-144.99;100.00;52276.88;5066437;28;20650;-67
2021/07/01 06:51:11;;;;;;;633.43;570.00;;;;;;;-144.99;100.00;52268.72;5065114;28;20650;-66
2021/07/01 06:53:41;;;;;;;628.03;565.13;;;;;;;-144.99;100.00;52321.72;5082885;28;20622;-67
2021/07/01 06:56:07;;;;;;;617.50;554.57;;;;;;;-144.99;100.00;52297.25;5075299;28;20619;-67
2021/07/01 06:58:35;;;;;;;639.77;576.47;;;;;;;-144.99;100.00;52297.25;5071429;28;20663;-67
2021/07/01 07:01:02;;;;;;;623.73;561.03;;;;;;;-144.99;100.00;52346.19;5066253;28;20993;-66
2021/07/01 07:03:29;;;;;;;617.97;555.33;;;;;;;-144.99;100.00;52280.97;5066019;28;20663;-66
2021/07/01 07:06:00;;;;;;;617.10;554.57;;;;;;;-144.99;100.00;52321.72;5075192;28;20635;-66
2021/07/01 07:08:27;;;;;;;619.00;556.70;;;;;;;-144.99;100.00;52327.84;5066276;28;21191;-66
2021/07/01 07:10:53;;;;;;;622.17;559.57;;;;;;;-144.99;100.00;52309.50;5065930;28;21111;-67
2021/07/01 07:13:24;;;;;;;634.80;571.53;;;;;;;-144.99;100.00;52293.19;5066314;28;20650;-67
2021/07/01 07:15:53;;;;;;;608.77;546.43;;;;;;;-144.99;100.00;52305.41;5073883;28;20643;-66
2021/07/01 07:18:22;;;;;;;616.67;553.97;;;;;;;-144.99;100.00;52280.97;5077705;28;20619;-67
2021/07/01 07:20:53;;;;;;;610.33;547.73;;;;;;;-144.99;100.00;52293.19;5070893;28;20613;-66
2021/07/01 07:23:28;;;;;;;605.47;543.47;;;;;;;-144.99;100.00;52338.03;5082437;28;21298;-66
2021/07/01 07:25:55;;;;;;;606.57;544.50;;;;;;;-144.99;100.00;52317.66;5067916;28;20625;-66
2021/07/01 07:28:24;;;;;;;596.17;534.50;;;;;;;-144.99;100.00;52325.81;5065784;28;21014;-67
2021/07/01 07:30:53;;;;;;;604.90;543.00;;;;;;;-144.99;100.00;52321.72;5075586;28;21183;-67
2021/07/01 07:33:23;;;;;;;592.10;530.53;;;;;;;-144.99;100.00;52280.97;5065323;28;20623;-67
2021/07/01 07:35:50;;;;;;;599.60;537.70;;;;;;;-144.99;100.00;52293.19;5078673;28;21206;-66
2021/07/01 07:38:18;;;;;;;616.70;553.83;;;;;;;-144.99;100.00;52309.50;5065954;28;20627;-67
2021/07/01 07:40:49;;;;;;;595.60;533.97;;;;;;;-144.99;100.00;52301.34;5078580;28;20634;-66
2021/07/01 07:43:16;;;;;;;588.37;527.03;;;;;;;-144.99;100.00;52305.41;5065993;28;20674;-67
2021/07/01 07:45:43;;;;;;;605.97;544.17;;;;;;;-144.99;100.00;52313.56;5064881;28;21185;-68
2021/07/01 07:48:10;;;;;;;602.93;541.10;;;;;;;-144.99;100.00;52289.13;5065337;28;20664;-67
2021/07/01 07:50:39;;;;;;;576.87;515.90;;;;;;;-144.99;100.00;52305.41;5065314;28;20650;-68
2021/07/01 07:53:07;;;;;;;581.53;520.33;;;;;;;-144.99;100.00;52315.59;5078718;28;20641;-66
2021/07/01 07:55:35;;;;;;;586.23;524.87;;;;;;;-144.99;100.00;52289.13;5081742;28;20626;-67
2021/07/01 07:58:07;;;;;;;583.13;521.80;;;;;;;-144.99;100.00;52317.66;5077737;28;20630;-67
2021/07/01 08:00:34;;;;;;;566.30;505.53;;;;;;;-144.99;100.00;52301.34;5065536;28;21270;-67
2021/07/01 08:03:02;;;;;;;576.53;515.50;;;;;;;-144.99;100.00;52317.66;5066849;28;20630;-67
2021/07/01 08:05:31;;;;;;;564.63;504.10;;;;;;;-144.99;100.00;52301.34;5075311;28;20629;-68
2021/07/01 08:07:58;;;;;;;564.13;503.30;;;;;;;-144.99;100.00;52309.50;5074162;28;20630;-66
2021/07/01 08:10:28;;;;;;;560.70;500.30;;;;;;;-144.99;100.00;52325.81;5069013;28;20654;-68
2021/07/01 08:13:01;;;;;;;562.60;502.13;;;;;;;-144.99;100.00;52319.69;5068965;28;21254;-65
2021/07/01 08:15:30;;;;;;;557.17;496.67;;;;;;;-144.99;100.00;52301.34;5074876;28;20644;-65
2021/07/01 08:17:58;;;;;;;555.50;495.37;;;;;;;-144.99;100.00;52301.34;5084158;28;20628;-66
2021/07/01 08:20:25;;;;;;;564.70;504.33;;;;;;;-144.99;100.00;52309.50;5074871;28;20653;-68
2021/07/01 08:22:54;;;;;;;556.30;495.67;;;;;;;-144.99;100.00;52307.47;5083627;28;20633;-66
2021/07/01 08:25:23;;;;;;;567.53;506.87;;;;;;;-144.99;100.00;52305.41;5073886;28;20675;-67
2021/07/01 08:27:52;;;;;;;562.60;502.43;;;;;;;-144.99;100.00;52319.69;5069135;28;20630;-66
2021/07/01 08:30:21;;;;;;;561.33;500.93;;;;;;;-144.99;100.00;52303.38;5080328;28;20700;-66
2021/07/01 08:32:53;;;;;;;571.17;510.87;;;;;;;-144.99;100.00;52325.81;5070036;28;20619;-67
2021/07/01 08:35:22;;;;;;;561.90;501.87;;;;;;;-144.99;100.00;52313.56;5069950;28;21049;-67
2021/07/01 08:37:51;;;;;;;566.50;506.30;;;;;;;-144.99;100.00;52303.38;5069312;28;21187;-67
2021/07/01 08:40:20;;;;;;;566.33;506.37;;;;;;;-144.99;100.00;52272.81;5081830;28;20642;-67
2021/07/01 08:42:51;;;;;;;581.90;521.40;;;;;;;-144.99;100.00;52305.41;5074515;28;21083;-68
2021/07/01 08:45:17;;;;;;;572.10;511.90;;;;;;;-144.99;100.00;52293.19;5070713;28;20728;-66
2021/07/01 08:47:45;;;;;;;567.63;507.53;;;;;;;-144.99;100.00;52293.19;5080515;28;20958;-66
2021/07/01 08:50:16;;;;;;;585.77;525.43;;;;;;;-144.99;100.00;52268.72;5068103;28;20659;-67
2021/07/01 08:53:04;;;;;;;593.63;532.97;;;;;;;-144.99;100.00;52252.44;5078348;28;21062;-67
2021/07/01 08:55:32;;;;;;;575.93;515.57;;;;;;;-144.99;100.00;52256.50;5082771;28;20623;-67
2021/07/01 08:58:02;;;;;;;597.93;537.23;;;;;;;-144.99;100.00;52280.97;5074284;28;20627;-65
2021/07/01 09:00:29;;;;;;;637.70;575.67;;;;;;;-144.99;100.00;52291.16;5081351;28;20712;-66
2021/07/01 09:03:04;;;;;;;636.70;575.27;;;;;;;-144.99;100.00;52244.28;5068281;28;21229;-66
2021/07/01 09:05:35;;;;;;;634.73;573.30;;;;;;;-144.99;100.00;52293.19;5074710;28;20658;-67
2021/07/01 09:08:08;;;;;;;631.73;570.37;;;;;;;-144.99;100.00;52280.97;5072217;28;20629;-67
2021/07/01 09:10:36;;;;;;;637.77;576.27;;;;;;;-144.99;100.00;52227.97;5067841;28;20670;-67
2021/07/01 09:13:04;;;;;;;641.73;580.07;;;;;;;-144.99;100.00;52223.88;5068369;28;20636;-67
2021/07/01 09:15:32;;;;;;;655.13;593.37;;;;;;;-144.99;100.00;52264.66;5072582;28;20700;-67
2021/07/01 09:17:59;;;;;;;651.07;589.23;;;;;;;-144.99;100.00;52276.88;5083812;28;20627;-67
2021/07/01 09:20:33;;;;;;;660.20;597.83;;;;;;;-144.99;100.00;52280.97;5073893;28;20652;-66
2021/07/01 09:23:02;;;;;;;664.33;602.17;;;;;;;-144.99;100.00;52289.13;5082840;28;21008;-66
2021/07/01 09:25:29;;;;;;;666.57;604.07;;;;;;;-144.99;100.00;52244.28;5074267;28;20693;-67
2021/07/01 09:27:57;;;;;;;676.77;613.90;;;;;;;-144.99;100.00;52276.88;5068206;28;20656;-67
2021/07/01 09:30:27;;;;;;;700.03;636.50;;;;;;;-144.99;100.00;52264.66;5078788;28;20651;-68
2021/07/01 09:32:56;;;;;;;697.77;634.03;;;;;;;-144.99;100.00;52260.56;5068307;28;21106;-66
2021/07/01 09:35:24;;;;;;;700.53;637.33;;;;;;;-144.99;99.27;52244.28;5067180;28;20625;-67
2021/07/01 09:37:52;;;;;;;724.63;660.30;;;;;;;-144.99;98.57;52248.34;5067890;28;20636;-67
2021/07/01 09:40:22;;;;;;;764.63;699.20;;;;;;;-144.99;96.97;52236.13;5080203;28;20973;-66
2021/07/01 09:42:53;;;;;;;808.47;741.37;;;;;;;-144.99;97.09;52232.03;5073073;28;20270;-68
2021/07/01 09:45:23;;;;;;;801.93;735.43;;;;;;;-144.99;95.95;52280.97;5067515;28;20228;-66
2021/07/01 09:47:53;;;;;;;814.73;747.13;;;;;;;-144.99;95.30;52250.38;5067825;28;20204;-67
2021/07/01 09:50:22;;;;;;;820.77;753.67;;;;;;;-144.99;95.33;52248.34;5067429;28;20238;-66
2021/07/01 09:52:52;;;;;;;809.80;743.20;;;;;;;-144.99;94.46;52258.53;5077679;28;20217;-67
2021/07/01 09:55:20;;;;;;;814.00;747.27;;;;;;;-144.99;93.71;52248.34;5082056;28;20196;-69
2021/07/01 09:57:49;;;;;;;816.03;749.30;;;;;;;-144.99;92.91;52252.44;5071431;28;20207;-69
2021/07/01 10:00:17;;;;;;;816.23;749.37;;;;;;;-144.99;92.34;52248.34;5068358;28;20584;-68
2021/07/01 10:02:44;;;;;;;823.13;756.03;;;;;;;-144.99;91.28;52232.03;5067214;28;20216;-67
2021/07/01 10:05:26;;;;;;;821.03;754.30;;;;;;;-144.99;91.55;52215.75;5067484;28;20235;-66
2021/07/01 10:07:53;;;;;;;843.80;776.37;;;;;;;-144.99;90.79;52244.28;5067534;28;20214;-65
2021/07/01 10:10:22;;;;;;;838.30;771.37;;;;;;;-144.99;90.41;52264.66;5066813;28;20247;-68
2021/07/01 10:12:51;;;;;;;831.63;764.50;;;;;;;-144.99;90.07;52240.19;5067552;28;21022;-67
2021/07/01 10:15:27;;;;;;;828.17;761.23;;;;;;;-144.99;90.18;52225.94;5070182;28;20254;-67
2021/07/01 10:18:06;;;;;;;836.00;768.83;;;;;;;-144.99;89.91;52256.50;5082066;28;20604;-67
2021/07/01 10:20:34;;;;;;;854.43;786.57;;;;;;;-144.99;88.60;52252.44;5072276;28;21112;-69
2021/07/01 10:23:02;;;;;;;863.60;795.33;;;;;;;-144.99;88.40;52266.69;5081954;28;20219;-68
2021/07/01 10:25:33;;;;;;;852.37;784.60;;;;;;;-144.99;88.52;52248.34;5071863;28;20267;-67
2021/07/01 10:28:10;;;;;;;877.70;809.63;;;;;;;-144.99;88.02;52232.03;5067519;28;20223;-66
2021/07/01 10:30:38;;;;;;;864.67;796.73;;;;;;;-144.99;87.21;52244.28;5077268;28;20247;-68
2021/07/01 10:33:05;;;;;;;875.87;807.83;;;;;;;-144.99;86.73;52195.34;5066971;28;20296;-66
2021/07/01 10:35:34;;;;;;;881.00;812.53;;;;;;;-144.99;86.07;52250.38;5070503;28;20211;-66
2021/07/01 10:38:04;;;;;;;877.10;808.90;;;;;;;-144.99;85.30;52203.50;5076363;28;20221;-67
2021/07/01 10:40:34;;;;;;;912.30;843.37;;;;;;;-144.99;85.03;52217.78;5080299;28;20233;-67
2021/07/01 10:43:01;;;;;;;909.33;840.27;;;;;;;-144.99;83.91;52215.75;5071864;28;20208;-66